createdAt,value
2023-10-13T00:00:43.941Z,14.50
2023-10-13T00:03:17.113Z,13.53
2023-10-13T00:05:46.039Z,14.67
2023-10-13T00:08:14.984Z,12.63
2023-10-13T00:10:44.009Z,14.30
2023-10-13T00:13:20.015Z,14.67
2023-10-13T00:15:58.381Z,13.70
2023-10-13T00:18:28.807Z,13.30
2023-10-13T00:20:58.520Z,13.97
2023-10-13T00:23:28.221Z,12.60
2023-10-13T00:26:00.312Z,13.47
2023-10-13T00:28:36.970Z,12.63
2023-10-13T00:31:12.307Z,13.00
2023-10-13T00:33:42.865Z,14.13
2023-10-13T00:36:18.282Z,13.90
2023-10-13T00:38:49.413Z,13.83
2023-10-13T00:41:19.288Z,12.63
2023-10-13T00:44:05.174Z,14.17
2023-10-13T00:46:35.566Z,13.70
2023-10-13T00:49:03.473Z,12.70
2023-10-13T00:51:36.233Z,14.70
2023-10-13T00:54:08.777Z,13.80
2023-10-13T00:56:41.911Z,12.77
2023-10-13T00:59:11.389Z,14.70
2023-10-13T01:01:42.818Z,12.23
2023-10-13T01:04:13.529Z,14.20
2023-10-13T01:06:42.510Z,13.00
2023-10-13T01:09:15.470Z,15.23
2023-10-13T01:11:44.225Z,14.77
2023-10-13T01:14:16.089Z,14.07
2023-10-13T01:16:45.191Z,14.23
2023-10-13T01:19:15.310Z,14.23
2023-10-13T01:21:42.777Z,12.80
2023-10-13T01:24:14.793Z,15.20
2023-10-13T01:26:43.760Z,14.33
2023-10-13T01:29:15.221Z,14.63
2023-10-13T01:31:49.302Z,14.20
2023-10-13T01:34:23.053Z,14.80
2023-10-13T01:36:52.337Z,14.50
2023-10-13T01:39:22.490Z,15.80
2023-10-13T01:41:56.615Z,13.73
2023-10-13T01:44:25.450Z,15.03
2023-10-13T01:46:52.881Z,14.77
2023-10-13T01:49:24.073Z,11.90
2023-10-13T01:51:51.533Z,14.53
2023-10-13T01:54:22.197Z,14.03
2023-10-13T01:56:51.132Z,15.03
2023-10-13T01:59:20.421Z,15.17
2023-10-13T02:01:47.957Z,15.30
2023-10-13T02:04:17.729Z,13.47
2023-10-13T02:06:45.319Z,14.70
2023-10-13T02:09:15.139Z,13.00
2023-10-13T02:11:42.923Z,15.00
2023-10-13T02:14:13.188Z,14.60
2023-10-13T02:16:40.981Z,14.47
2023-10-13T02:19:09.863Z,12.07
2023-10-13T02:21:40.565Z,14.13
2023-10-13T02:24:14.325Z,12.37
2023-10-13T02:26:42.129Z,12.90
2023-10-13T02:29:17.167Z,11.90
2023-10-13T02:31:55.940Z,12.37
2023-10-13T02:34:24.685Z,13.13
2023-10-13T02:36:52.843Z,14.00
2023-10-13T02:39:26.232Z,13.20
2023-10-13T02:41:54.170Z,14.10
2023-10-13T02:44:28.320Z,13.67
2023-10-13T02:46:57.346Z,12.40
2023-10-13T02:49:27.343Z,10.60
2023-10-13T02:51:56.760Z,12.93
2023-10-13T02:54:31.324Z,13.47
2023-10-13T02:56:58.934Z,12.37
2023-10-13T02:59:39.964Z,12.87
2023-10-13T03:02:19.102Z,12.67
2023-10-13T03:04:48.061Z,13.50
2023-10-13T03:07:17.165Z,14.07
2023-10-13T03:09:52.549Z,11.83
2023-10-13T03:12:20.311Z,13.00
2023-10-13T03:14:49.569Z,12.13
2023-10-13T03:17:20.396Z,12.37
2023-10-13T03:19:51.334Z,12.50
2023-10-13T03:22:19.683Z,12.50
2023-10-13T03:24:48.583Z,12.27
2023-10-13T03:27:18.681Z,12.40
2023-10-13T03:29:47.613Z,11.70
2023-10-13T03:32:17.064Z,12.40
2023-10-13T03:35:07.862Z,12.10
2023-10-13T03:37:39.102Z,11.60
2023-10-13T03:40:17.308Z,10.60
2023-10-13T03:42:58.787Z,11.80
2023-10-13T03:45:27.062Z,12.83
2023-10-13T03:47:55.407Z,13.60
2023-10-13T03:50:31.244Z,11.43
2023-10-13T03:53:00.396Z,12.20
2023-10-13T03:55:30.346Z,13.30
2023-10-13T03:58:00.807Z,10.97
2023-10-13T04:00:29.271Z,11.60
2023-10-13T04:03:09.929Z,11.20
2023-10-13T04:05:45.967Z,10.70
2023-10-13T04:08:32.054Z,11.60
2023-10-13T04:11:18.082Z,10.63
2023-10-13T04:14:06.289Z,12.33
2023-10-13T04:16:38.984Z,10.20
2023-10-13T04:19:22.036Z,11.07
2023-10-13T04:21:59.470Z,11.10
2023-10-13T04:25:00.882Z,12.67
2023-10-13T04:27:45.489Z,11.90
2023-10-13T04:30:20.733Z,10.57
2023-10-13T04:33:07.507Z,12.23
2023-10-13T04:35:48.564Z,11.90
2023-10-13T04:38:21.576Z,11.33
2023-10-13T04:41:00.314Z,10.60
2023-10-13T04:43:55.024Z,10.40
2023-10-13T04:46:36.373Z,12.27
2023-10-13T04:49:11.320Z,11.33
2023-10-13T04:51:54.487Z,10.67
2023-10-13T04:54:35.466Z,11.43
2023-10-13T04:57:21.891Z,10.43
2023-10-13T05:00:13.143Z,10.60
2023-10-13T05:02:59.701Z,10.17
2023-10-13T05:05:47.938Z,11.17
2023-10-13T05:08:34.311Z,9.73
2023-10-13T05:11:30.982Z,9.70
2023-10-13T05:14:16.897Z,11.43
2023-10-13T05:17:02.917Z,11.40
2023-10-13T05:19:48.877Z,9.40
2023-10-13T05:22:40.369Z,9.60
2023-10-13T05:25:26.404Z,11.57
2023-10-13T05:28:26.488Z,10.43
2023-10-13T05:31:19.795Z,10.70
2023-10-13T05:34:05.775Z,11.37
2023-10-13T05:36:51.779Z,9.10
2023-10-13T05:39:37.873Z,10.80
2023-10-13T05:42:23.730Z,10.80
2023-10-13T05:45:18.399Z,10.77
2023-10-13T05:47:51.915Z,10.50
2023-10-13T05:50:46.471Z,11.10
2023-10-13T05:53:32.431Z,12.20
2023-10-13T05:56:20.403Z,11.20
2023-10-13T05:59:06.593Z,13.53
2023-10-13T06:01:53.974Z,13.67
2023-10-13T06:04:40.092Z,12.43
2023-10-13T06:07:26.292Z,11.50
2023-10-13T06:10:12.357Z,11.83
2023-10-13T06:12:58.509Z,13.20
2023-10-13T06:15:44.470Z,13.50
2023-10-13T06:18:31.742Z,12.70
2023-10-13T06:21:17.735Z,12.23
2023-10-13T06:24:03.747Z,13.33
2023-10-13T06:26:49.622Z,13.50
2023-10-13T06:29:21.293Z,13.67
2023-10-13T06:31:50.325Z,12.70
2023-10-13T06:34:22.675Z,11.90
2023-10-13T06:36:55.373Z,11.97
2023-10-13T06:39:36.137Z,13.30
2023-10-13T06:42:04.983Z,12.20
2023-10-13T06:44:34.244Z,12.53
2023-10-13T06:47:05.280Z,13.17
2023-10-13T06:49:40.040Z,13.43
2023-10-13T06:52:08.693Z,12.53
2023-10-13T06:54:38.082Z,12.00
2023-10-13T06:57:08.030Z,12.57
2023-10-13T06:59:37.710Z,11.90
2023-10-13T07:02:20.897Z,11.33
2023-10-13T07:05:08.547Z,10.67
2023-10-13T07:07:39.822Z,11.30
2023-10-13T07:10:10.716Z,11.37
2023-10-13T07:12:44.080Z,10.80
2023-10-13T07:15:21.470Z,10.90
2023-10-13T07:17:55.921Z,8.70
2023-10-13T07:20:33.952Z,7.93
2023-10-13T07:23:05.109Z,8.67
2023-10-13T07:25:36.786Z,7.80
2023-10-13T07:28:05.999Z,7.37
2023-10-13T07:30:40.844Z,7.53
2023-10-13T07:33:14.307Z,7.13
2023-10-13T07:35:44.724Z,6.97
2023-10-13T07:38:14.413Z,8.23
2023-10-13T07:40:42.752Z,7.60
2023-10-13T07:43:11.658Z,7.80
2023-10-13T07:45:41.647Z,7.20
2023-10-13T07:48:14.186Z,7.33
2023-10-13T07:50:45.230Z,8.20
2023-10-13T07:53:23.692Z,8.30
2023-10-13T07:55:56.507Z,8.87
2023-10-13T07:58:26.984Z,7.47
2023-10-13T08:01:08.944Z,7.10
2023-10-13T08:03:44.481Z,7.70
2023-10-13T08:06:22.917Z,8.10
2023-10-13T08:08:57.481Z,7.40
2023-10-13T08:11:33.320Z,6.87
2023-10-13T08:14:18.700Z,8.20
2023-10-13T08:16:55.598Z,8.03
2023-10-13T08:19:28.648Z,7.57
2023-10-13T08:22:22.220Z,7.37
2023-10-13T08:25:09.012Z,7.40
2023-10-13T08:27:49.608Z,7.63
2023-10-13T08:30:30.775Z,8.70
2023-10-13T08:33:00.399Z,7.07
2023-10-13T08:35:39.122Z,7.47
2023-10-13T08:38:30.645Z,8.10
2023-10-13T08:41:18.706Z,8.60
2023-10-13T08:43:51.898Z,7.90
2023-10-13T08:46:28.491Z,7.73
2023-10-13T08:49:09.797Z,8.80
2023-10-13T08:51:50.203Z,8.30
2023-10-13T08:54:35.478Z,9.10
2023-10-13T08:57:34.154Z,10.03
2023-10-13T09:00:16.603Z,10.63
2023-10-13T09:03:10.817Z,8.20
2023-10-13T09:05:43.757Z,8.67
2023-10-13T09:08:17.008Z,10.10
2023-10-13T09:11:06.714Z,9.20
2023-10-13T09:13:45.113Z,9.70
2023-10-13T09:16:34.463Z,8.67
2023-10-13T09:19:06.003Z,9.70
2023-10-13T09:21:48.421Z,9.20
2023-10-13T09:24:23.560Z,10.13
2023-10-13T09:26:56.978Z,10.27
2023-10-13T09:29:26.320Z,9.90
2023-10-13T09:32:01.727Z,10.33
2023-10-13T09:34:32.890Z,10.77
2023-10-13T09:37:00.720Z,9.17
2023-10-13T09:39:35.939Z,9.80
2023-10-13T09:42:05.767Z,9.03
2023-10-13T09:44:33.988Z,9.60
2023-10-13T09:47:08.585Z,10.13
2023-10-13T09:49:47.083Z,8.53
2023-10-13T09:52:26.110Z,8.53
2023-10-13T09:55:01.122Z,8.57
2023-10-13T09:57:35.820Z,9.03
2023-10-13T10:00:16.561Z,8.37
2023-10-13T10:02:45.603Z,8.03
2023-10-13T10:05:15.054Z,10.10
2023-10-13T10:07:45.111Z,9.70
2023-10-13T10:10:13.139Z,8.70
2023-10-13T10:12:48.061Z,9.13
2023-10-13T10:15:31.030Z,8.97
2023-10-13T10:17:59.693Z,8.33
2023-10-13T10:20:40.991Z,9.47
2023-10-13T10:23:13.745Z,8.60
2023-10-13T10:25:45.739Z,9.07
2023-10-13T10:28:16.974Z,9.60
2023-10-13T10:30:45.375Z,9.43
2023-10-13T10:33:14.816Z,8.57
2023-10-13T10:35:43.922Z,10.13
2023-10-13T10:38:25.022Z,7.83
2023-10-13T10:40:58.012Z,8.10
2023-10-13T10:43:33.867Z,8.17
2023-10-13T10:46:02.832Z,8.40
2023-10-13T10:48:35.370Z,9.03
2023-10-13T10:51:15.076Z,8.30
2023-10-13T10:53:45.500Z,7.67
2023-10-13T10:56:25.691Z,7.23
2023-10-13T10:58:57.187Z,7.57
2023-10-13T11:01:26.005Z,8.53
2023-10-13T11:03:59.851Z,7.70
2023-10-13T11:06:28.802Z,7.50
2023-10-13T11:09:09.163Z,8.40
2023-10-13T11:11:37.550Z,7.83
2023-10-13T11:14:18.889Z,8.93
2023-10-13T11:16:54.950Z,7.80
2023-10-13T11:19:26.824Z,8.40
2023-10-13T11:21:56.860Z,7.43
2023-10-13T11:24:25.318Z,6.87
2023-10-13T11:26:55.887Z,7.77
2023-10-13T11:29:36.040Z,9.00
2023-10-13T11:32:04.485Z,6.83
2023-10-13T11:34:41.749Z,8.63
2023-10-13T11:37:28.010Z,6.73
2023-10-13T11:39:56.229Z,6.50
2023-10-13T11:42:27.547Z,7.67
2023-10-13T11:45:17.053Z,6.90
2023-10-13T11:47:49.271Z,6.83
2023-10-13T11:50:33.147Z,8.97
2023-10-13T11:53:01.634Z,7.47
2023-10-13T11:55:29.946Z,7.70
2023-10-13T11:58:00.476Z,6.37
2023-10-13T12:00:51.249Z,6.10
2023-10-13T12:03:37.369Z,6.37
2023-10-13T12:06:20.327Z,6.77
2023-10-13T12:08:53.582Z,6.83
2023-10-13T12:11:34.344Z,8.67
2023-10-13T12:14:12.904Z,6.30
2023-10-13T12:16:43.775Z,6.70
2023-10-13T12:19:12.791Z,7.03
2023-10-13T12:21:44.875Z,6.80
2023-10-13T12:24:23.506Z,8.00
2023-10-13T12:26:56.886Z,8.60
2023-10-13T12:29:29.746Z,6.83
2023-10-13T12:32:09.106Z,6.50
2023-10-13T12:34:55.632Z,6.87
2023-10-13T12:37:39.568Z,7.33
2023-10-13T12:40:26.104Z,6.73
2023-10-13T12:43:12.286Z,6.80
2023-10-13T12:45:58.711Z,6.27
2023-10-13T12:48:46.180Z,6.30
2023-10-13T12:51:22.008Z,6.57
2023-10-13T12:53:50.655Z,8.10
2023-10-13T12:56:19.184Z,7.30
2023-10-13T12:58:53.089Z,6.70
2023-10-13T13:01:22.391Z,6.73
2023-10-13T13:03:52.437Z,7.17
2023-10-13T13:06:25.826Z,7.30
2023-10-13T13:08:54.093Z,7.70
2023-10-13T13:11:24.681Z,7.70
2023-10-13T13:13:54.502Z,6.33
2023-10-13T13:16:25.439Z,7.43
2023-10-13T13:18:56.440Z,6.67
2023-10-13T13:21:25.115Z,7.37
2023-10-13T13:23:55.979Z,7.27
2023-10-13T13:26:24.600Z,7.90
2023-10-13T13:28:53.290Z,6.90
2023-10-13T13:31:26.713Z,7.03
2023-10-13T13:33:56.422Z,6.90
2023-10-13T13:36:25.214Z,7.03
2023-10-13T13:38:55.843Z,7.47
2023-10-13T13:41:24.425Z,5.90
2023-10-13T13:43:56.267Z,7.50
2023-10-13T13:46:28.478Z,6.90
2023-10-13T13:49:00.498Z,7.50
2023-10-13T13:51:29.717Z,7.00
2023-10-13T13:53:58.556Z,6.97
2023-10-13T13:56:28.582Z,7.30
2023-10-13T13:58:57.479Z,7.10
2023-10-13T14:01:26.943Z,7.50
2023-10-13T14:03:58.095Z,7.07
2023-10-13T14:06:31.031Z,7.90
2023-10-13T14:09:03.212Z,6.63
2023-10-13T14:11:50.015Z,8.13
2023-10-13T14:14:34.066Z,7.20
2023-10-13T14:17:08.035Z,6.40
2023-10-13T14:19:41.335Z,7.00
2023-10-13T14:22:13.800Z,7.60
2023-10-13T14:24:52.913Z,7.57
2023-10-13T14:27:23.935Z,6.90
2023-10-13T14:29:54.701Z,7.33
2023-10-13T14:32:26.065Z,9.40
2023-10-13T14:34:58.355Z,6.70
2023-10-13T14:37:32.089Z,6.47
2023-10-13T14:40:01.718Z,6.13
2023-10-13T14:42:36.507Z,6.40
2023-10-13T14:45:13.191Z,7.07
2023-10-13T14:47:41.713Z,6.60
2023-10-13T14:50:15.352Z,7.10
2023-10-13T14:52:45.173Z,7.10
2023-10-13T14:55:19.954Z,6.50
2023-10-13T14:57:50.706Z,6.40
2023-10-13T15:00:26.076Z,7.33
2023-10-13T15:02:55.402Z,7.03
2023-10-13T15:05:23.938Z,5.97
2023-10-13T15:07:53.561Z,6.40
2023-10-13T15:10:21.881Z,6.80
2023-10-13T15:12:50.962Z,6.10
2023-10-13T15:15:20.509Z,6.30
2023-10-13T15:17:51.501Z,7.00
2023-10-13T15:20:20.092Z,6.90
2023-10-13T15:22:49.927Z,8.70
2023-10-13T15:25:29.403Z,7.63
2023-10-13T15:28:03.424Z,6.13
2023-10-13T15:30:45.139Z,7.23
2023-10-13T15:33:14.232Z,7.37
2023-10-13T15:35:44.102Z,5.87
2023-10-13T15:38:13.187Z,7.87
2023-10-13T15:40:46.205Z,6.23
2023-10-13T15:43:14.829Z,6.77
2023-10-13T15:45:43.981Z,7.50
2023-10-13T15:48:18.618Z,6.23
2023-10-13T15:50:50.959Z,6.43
2023-10-13T15:53:29.468Z,7.40
2023-10-13T15:55:59.101Z,6.40
2023-10-13T15:58:27.366Z,6.57
2023-10-13T16:00:57.250Z,6.50
2023-10-13T16:03:28.683Z,6.87
2023-10-13T16:05:57.347Z,6.10
2023-10-13T16:08:25.619Z,7.30
2023-10-13T16:10:53.895Z,5.33
2023-10-13T16:13:23.516Z,6.00
2023-10-13T16:15:53.456Z,6.47
2023-10-13T16:18:23.707Z,7.13
2023-10-13T16:20:53.354Z,6.27
2023-10-13T16:23:21.821Z,6.47
2023-10-13T16:25:50.530Z,6.00
2023-10-13T16:28:18.995Z,7.30
2023-10-13T16:30:50.261Z,6.80
2023-10-13T16:33:19.461Z,5.70
2023-10-13T16:35:47.942Z,6.73
2023-10-13T16:38:16.448Z,5.93
2023-10-13T16:40:44.761Z,6.30
2023-10-13T16:43:14.252Z,6.23
2023-10-13T16:45:45.247Z,6.10
2023-10-13T16:48:15.279Z,5.40
2023-10-13T16:50:42.653Z,7.50
2023-10-13T16:53:11.313Z,6.67
2023-10-13T16:55:42.826Z,6.53
2023-10-13T16:58:13.287Z,5.80
2023-10-13T17:00:44.085Z,5.33
2023-10-13T17:03:13.318Z,7.23
2023-10-13T17:05:43.844Z,6.53
2023-10-13T17:08:12.124Z,6.13
2023-10-13T17:10:40.712Z,6.30
2023-10-13T17:13:09.350Z,6.23
2023-10-13T17:15:38.582Z,7.10
2023-10-13T17:18:07.806Z,6.90
2023-10-13T17:20:37.475Z,6.83
2023-10-13T17:23:07.830Z,6.43
2023-10-13T17:25:36.929Z,6.03
2023-10-13T17:28:07.307Z,7.13
2023-10-13T17:30:36.961Z,5.53
2023-10-13T17:33:06.665Z,6.23
2023-10-13T17:35:35.013Z,6.00
2023-10-13T17:38:03.288Z,5.90
2023-10-13T17:40:33.344Z,6.57
2023-10-13T17:43:01.596Z,6.73
2023-10-13T17:45:29.901Z,5.90
2023-10-13T17:47:58.188Z,6.97
2023-10-13T17:50:26.563Z,6.90
2023-10-13T17:52:54.885Z,6.37
2023-10-13T17:55:23.138Z,6.40
2023-10-13T17:57:52.767Z,6.43
2023-10-13T18:00:24.559Z,5.73
2023-10-13T18:02:55.362Z,5.97
2023-10-13T18:05:23.844Z,6.50
2023-10-13T18:07:53.215Z,6.37
2023-10-13T18:10:21.529Z,7.37
2023-10-13T18:12:51.348Z,7.53
2023-10-13T18:15:24.838Z,6.90
2023-10-13T18:17:54.321Z,6.83
2023-10-13T18:20:25.044Z,6.50
2023-10-13T18:22:55.781Z,6.67
2023-10-13T18:25:26.170Z,6.90
2023-10-13T18:27:54.546Z,6.97
2023-10-13T18:30:24.733Z,7.03
2023-10-13T18:32:55.808Z,8.47
2023-10-13T18:35:26.286Z,6.20
2023-10-13T18:37:54.666Z,6.53
2023-10-13T18:40:22.994Z,7.87
2023-10-13T18:42:52.134Z,6.93
2023-10-13T18:45:23.405Z,8.30
2023-10-13T18:47:53.919Z,6.50
2023-10-13T18:50:24.416Z,8.40
2023-10-13T18:52:53.785Z,7.00
2023-10-13T18:55:39.144Z,8.13
2023-10-13T18:58:07.363Z,8.10
2023-10-13T19:00:35.790Z,7.33
2023-10-13T19:03:06.479Z,8.33
2023-10-13T19:05:35.227Z,8.80
2023-10-13T19:08:09.136Z,6.87
2023-10-13T19:10:38.985Z,7.87
2023-10-13T19:13:07.357Z,7.83
2023-10-13T19:15:39.096Z,8.20
2023-10-13T19:18:09.827Z,7.80
2023-10-13T19:20:41.742Z,7.87
2023-10-13T19:23:10.471Z,7.27
2023-10-13T19:25:38.935Z,7.93
2023-10-13T19:28:10.299Z,8.37
2023-10-13T19:30:43.611Z,8.37
2023-10-13T19:33:13.345Z,8.13
2023-10-13T19:35:42.556Z,8.17
2023-10-13T19:38:10.988Z,7.40
2023-10-13T19:40:39.243Z,7.20
2023-10-13T19:43:12.689Z,8.63
2023-10-13T19:45:41.031Z,7.97
2023-10-13T19:48:10.466Z,7.40
2023-10-13T19:50:41.944Z,9.33
2023-10-13T19:53:11.957Z,9.67
2023-10-13T19:55:41.126Z,9.17
2023-10-13T19:58:09.846Z,9.07
2023-10-13T20:00:38.281Z,7.67
2023-10-13T20:03:09.707Z,8.53
2023-10-13T20:05:39.596Z,8.17
2023-10-13T20:08:08.129Z,7.50
2023-10-13T20:10:37.129Z,9.17
2023-10-13T20:13:06.443Z,8.70
2023-10-13T20:15:34.844Z,8.40
2023-10-13T20:18:09.161Z,9.87
2023-10-13T20:20:40.577Z,8.57
2023-10-13T20:23:13.900Z,8.13
2023-10-13T20:25:42.307Z,8.10
2023-10-13T20:28:10.722Z,8.67
2023-10-13T20:30:39.108Z,8.40
2023-10-13T20:33:11.376Z,8.00
2023-10-13T20:35:42.223Z,8.53
2023-10-13T20:38:11.894Z,8.47
2023-10-13T20:40:40.579Z,8.90
2023-10-13T20:43:12.871Z,10.10
2023-10-13T20:45:41.693Z,8.03
2023-10-13T20:48:10.673Z,8.77
2023-10-13T20:50:39.106Z,8.00
2023-10-13T20:53:07.306Z,8.37
2023-10-13T20:55:38.794Z,9.80
2023-10-13T20:58:07.196Z,8.07
2023-10-13T21:00:36.446Z,7.77
2023-10-13T21:03:08.375Z,11.40
2023-10-13T21:05:36.893Z,9.30
2023-10-13T21:08:05.757Z,8.77
2023-10-13T21:10:37.001Z,9.60
2023-10-13T21:13:05.327Z,9.00
2023-10-13T21:15:36.749Z,8.50
2023-10-13T21:18:07.267Z,9.17
2023-10-13T21:20:35.813Z,9.93
2023-10-13T21:23:04.057Z,9.40
2023-10-13T21:25:37.569Z,8.73
2023-10-13T21:28:08.455Z,10.30
2023-10-13T21:30:37.319Z,9.43
2023-10-13T21:33:09.016Z,9.90
2023-10-13T21:35:38.210Z,9.40
2023-10-13T21:38:06.705Z,8.77
2023-10-13T21:40:35.008Z,9.20
2023-10-13T21:43:06.269Z,9.57
2023-10-13T21:45:39.276Z,9.60
2023-10-13T21:48:10.767Z,10.40
2023-10-13T21:50:41.339Z,9.90
2023-10-13T21:53:13.021Z,9.57
2023-10-13T21:55:41.545Z,9.40
2023-10-13T21:58:09.989Z,9.10
2023-10-13T22:00:57.772Z,9.43
2023-10-13T22:03:27.827Z,10.03
2023-10-13T22:05:57.300Z,10.10
2023-10-13T22:08:25.898Z,10.67
2023-10-13T22:10:55.084Z,10.57
2023-10-13T22:13:23.316Z,10.53
2023-10-13T22:15:52.959Z,11.50
2023-10-13T22:18:21.172Z,11.17
2023-10-13T22:20:49.441Z,10.50
2023-10-13T22:23:17.660Z,13.03
2023-10-13T22:25:46.643Z,11.77
2023-10-13T22:28:16.255Z,13.00
2023-10-13T22:30:45.054Z,11.53
2023-10-13T22:33:16.623Z,11.17
2023-10-13T22:35:44.997Z,11.63
2023-10-13T22:38:13.186Z,12.07
2023-10-13T22:40:42.039Z,12.40
2023-10-13T22:43:10.392Z,12.80
2023-10-13T22:45:38.730Z,12.13
2023-10-13T22:48:07.636Z,12.70
2023-10-13T22:50:37.216Z,11.83
2023-10-13T22:53:06.962Z,12.70
2023-10-13T22:55:44.870Z,11.67
2023-10-13T22:58:13.199Z,12.70
2023-10-13T23:00:50.772Z,12.90
2023-10-13T23:03:19.616Z,12.53
2023-10-13T23:05:55.592Z,11.00
2023-10-13T23:08:23.570Z,12.47
2023-10-13T23:10:52.802Z,12.23
2023-10-13T23:13:22.316Z,12.47
2023-10-13T23:15:54.721Z,12.60
2023-10-13T23:18:24.761Z,12.27
2023-10-13T23:20:54.668Z,10.60
2023-10-13T23:23:25.660Z,12.30
2023-10-13T23:25:56.349Z,14.47
2023-10-13T23:28:36.368Z,12.60
2023-10-13T23:31:06.135Z,13.00
2023-10-13T23:33:34.698Z,12.33
2023-10-13T23:36:04.585Z,13.07
2023-10-13T23:38:35.898Z,13.50
2023-10-13T23:41:06.359Z,13.10
2023-10-13T23:43:45.076Z,13.07
2023-10-13T23:46:13.612Z,12.40
2023-10-13T23:48:44.608Z,12.17
2023-10-13T23:51:21.087Z,12.40
2023-10-13T23:53:50.130Z,12.87
2023-10-13T23:56:30.068Z,11.10
2023-10-13T23:59:01.634Z,11.50
